地図

経路データ

SID SEASON NUMBER BASIN SUBBASIN NAME ISO_TIME NATURE LAT LON WMO_WIND WMO_PRES WMO_AGENCY TRACK_TYPE DIST2LAND LANDFALL IFLAG USA_AGENCY USA_ATCF_ID USA_LAT USA_LON USA_RECORD USA_STATUS USA_WIND USA_PRES USA_SSHS USA_R34_NE USA_R34_SE USA_R34_SW USA_R34_NW USA_R50_NE USA_R50_SE USA_R50_SW USA_R50_NW USA_R64_NE USA_R64_SE USA_R64_SW USA_R64_NW USA_POCI USA_ROCI USA_RMW USA_EYE TOKYO_LAT TOKYO_LON TOKYO_GRADE TOKYO_WIND TOKYO_PRES TOKYO_R50_DIR TOKYO_R50_LONG TOKYO_R50_SHORT TOKYO_R30_DIR TOKYO_R30_LONG TOKYO_R30_SHORT TOKYO_LAND CMA_LAT CMA_LON CMA_CAT CMA_WIND CMA_PRES HKO_LAT HKO_LON HKO_CAT HKO_WIND HKO_PRES NEWDELHI_LAT NEWDELHI_LON NEWDELHI_GRADE NEWDELHI_WIND NEWDELHI_PRES NEWDELHI_CI NEWDELHI_DP NEWDELHI_POCI REUNION_LAT REUNION_LON REUNION_TYPE REUNION_WIND REUNION_PRES REUNION_TNUM REUNION_CI REUNION_RMW REUNION_R34_NE REUNION_R34_SE REUNION_R34_SW REUNION_R34_NW REUNION_R50_NE REUNION_R50_SE REUNION_R50_SW REUNION_R50_NW REUNION_R64_NE REUNION_R64_SE REUNION_R64_SW REUNION_R64_NW BOM_LAT BOM_LON BOM_TYPE BOM_WIND BOM_PRES BOM_TNUM BOM_CI BOM_RMW BOM_R34_NE BOM_R34_SE BOM_R34_SW BOM_R34_NW BOM_R50_NE BOM_R50_SE BOM_R50_SW BOM_R50_NW BOM_R64_NE BOM_R64_SE BOM_R64_SW BOM_R64_NW BOM_ROCI BOM_POCI BOM_EYE BOM_POS_METHOD BOM_PRES_METHOD NADI_LAT NADI_LON NADI_CAT NADI_WIND NADI_PRES WELLINGTON_LAT WELLINGTON_LON WELLINGTON_WIND WELLINGTON_PRES DS824_LAT DS824_LON DS824_STAGE DS824_WIND DS824_PRES TD9636_LAT TD9636_LON TD9636_STAGE TD9636_WIND TD9636_PRES TD9635_LAT TD9635_LON TD9635_WIND TD9635_PRES TD9635_ROCI NEUMANN_LAT NEUMANN_LON NEUMANN_CLASS NEUMANN_WIND NEUMANN_PRES MLC_LAT MLC_LON MLC_CLASS MLC_WIND MLC_PRES USA_GUST BOM_GUST BOM_GUST_PER REUNION_GUST REUNION_GUST_PER USA_SEAHGT USA_SEARAD_NE USA_SEARAD_SE USA_SEARAD_SW USA_SEARAD_NW STORM_SPEED STORM_DIR
1940262N14096 1940 66 NI BB NOT_NAMED 1940-09-18 00:00:00 TS 13.9000 96.1000 main 203 203 _________O____ -1 13.9000 96.1000 TC 30 0 0
1940262N14096 1940 66 NI BB NOT_NAMED 1940-09-18 03:00:00 TS 13.9000 96.1000 main 203 203 _________PO___ -1 13.9000 96.1000 TC 30 13.9000 96.1000 1 0 0
1940262N14096 1940 66 NI BB NOT_NAMED 1940-09-18 06:00:00 TS 13.9082 96.0870 main 203 203 _________OP___ -1 13.9000 96.1000 TC 30 13.9204 96.0674 1 0 0
1940262N14096 1940 66 NI BB NOT_NAMED 1940-09-18 09:00:00 TS 13.9140 96.0776 main 203 203 _________PP___ -1 13.9000 96.1000 TC 30 13.9327 96.0478 1 0 0
1940262N14096 1940 66 NI BB NOT_NAMED 1940-09-18 12:00:00 TS 13.9143 96.0772 main 203 203 _________OP___ -1 13.9000 96.1000 TC 30 13.9286 96.0543 1 0 0
1940262N14096 1940 66 NI BB NOT_NAMED 1940-09-18 15:00:00 TS 13.9000 96.1000 main 203 203 _________PO___ -1 13.9000 96.1000 TC 30 13.9000 96.1000 1 1 121
1940262N14096 1940 66 NI BB NOT_NAMED 1940-09-18 18:00:00 TS 13.8734 96.1424 main 203 194 _________OP___ -1 13.9000 96.1000 TC 30 13.8468 96.1848 1 1 123
1940262N14096 1940 66 NI BB NOT_NAMED 1940-09-18 21:00:00 TS 13.8321 96.2082 main 199 199 _________PP___ -1 13.8624 96.1599 TC 30 13.8018 96.2565 1 0 121
1940262N14096 1940 66 NI BB NOT_NAMED 1940-09-19 00:00:00 TS 13.8529 96.1750 main 194 194 _________OP___ -1 13.9000 96.1000 TC 30 13.8059 96.2500 1 3 303
1940262N14096 1940 66 NI BB NOT_NAMED 1940-09-19 03:00:00 TS 13.9949 95.9487 main 195 167 _________PO___ -1 14.0899 95.7973 TC 30 13.9000 96.1000 1 8 301
1940262N14096 1940 66 NI BB NOT_NAMED 1940-09-19 06:00:00 TS 14.2562 95.4931 main 156 123 _________OP___ -1 14.4000 95.3000 TC 30 14.1124 95.6862 1 12 300
1940262N14096 1940 66 NI BB NOT_NAMED 1940-09-19 09:00:00 TS 14.5936 94.8846 main 123 90 _________PP___ -1 14.7705 94.6354 TC 30 14.4168 95.1338 1 14 302
1940262N14096 1940 66 NI BB NOT_NAMED 1940-09-19 12:00:00 TS 14.9938 94.2697 main 90 69 _________OP___ -1 15.2000 94.0000 TC 30 14.7876 94.5393 1 13 309
1940262N14096 1940 66 NI BB NOT_NAMED 1940-09-19 15:00:00 TS 15.4211 93.8198 main 78 67 _________PO___ -1 15.6422 93.6397 TC 30 15.2000 94.0000 1 11 321
1940262N14096 1940 66 NI BB NOT_NAMED 1940-09-19 18:00:00 TS 15.8688 93.5304 main 75 74 _________OP___ -1 16.1000 93.4000 TC 30 15.6376 93.6607 1 11 330
1940262N14096 1940 66 NI BB NOT_NAMED 1940-09-19 21:00:00 TS 16.3394 93.2696 main 101 101 _________PP___ -1 16.5724 93.1499 TC 30 16.1065 93.3893 1 10 332
1940262N14096 1940 66 NI BB NOT_NAMED 1940-09-20 00:00:00 TS 16.7861 93.0241 main 142 142 _________OP___ -1 17.0000 92.9000 TC 30 16.5721 93.1483 1 10 329
1940262N14096 1940 66 NI BB NOT_NAMED 1940-09-20 03:00:00 TS 17.1612 92.7574 main 173 173 _________PO___ -1 17.3224 92.6148 TC 30 17.0000 92.9000 1 9 321
1940262N14096 1940 66 NI BB NOT_NAMED 1940-09-20 06:00:00 TS 17.4736 92.4445 main 215 207 _________OP___ -1 17.6000 92.3000 TC 30 17.3471 92.5889 1 9 315
1940262N14096 1940 66 NI BB NOT_NAMED 1940-09-20 09:00:00 TS 17.7762 92.1072 main 215 215 _________PP___ -1 17.9000 91.9500 TC 30 17.6524 92.2644 1 9 313
1940262N14096 1940 66 NI BB NOT_NAMED 1940-09-20 12:00:00 TS 18.0657 91.7664 main 224 224 _________OP___ -1 18.2000 91.6000 TC 30 17.9315 91.9327 1 9 313
1940262N14096 1940 66 NI BB NOT_NAMED 1940-09-20 15:00:00 TS 18.3537 91.4499 main 246 244 _________PO___ -1 18.5074 91.2999 TC 30 18.2000 91.6000 1 8 313
1940262N14096 1940 66 NI BB NOT_NAMED 1940-09-20 18:00:00 TS 18.6119 91.1550 main 244 244 _________OP___ -1 18.8000 91.0000 TC 30 18.4708 91.2712 1 8 311
1940262N14096 1940 66 NI BB NOT_NAMED 1940-09-20 21:00:00 TS 18.8713 90.8327 main 253 253 _________PP___ -1 19.0602 90.6627 TC 30 18.7454 90.9459 1 8 310
1940262N14096 1940 66 NI BB NOT_NAMED 1940-09-21 00:00:00 TS 19.1148 90.5152 main 266 259 _________OP___ -1 19.3000 90.3000 TC 30 19.0223 90.6227 1 7 310
1940262N14096 1940 66 NI BB NOT_NAMED 1940-09-21 03:00:00 NR 19.3000 90.3000 main 269 __________O___ -1 TC 19.3000 90.3000 1 6 312

IBTrACS Databaseについて

本データベースは、米国NOAAが公開する1842年以降の世界の熱帯低気圧のベストトラックデータアーカイブInternational Best Track Archive for Climate Stewardship (IBTrACS)を、ウェブで閲覧しやすい形式に変換したものです。

最終更新日:2021-10-08